Time;durP1;ratioP1;P1;durP2;ratioP2;P2;SDS_P1;SDS_P2;PMS_P1;PMS_P2;Temp;Humidity;BMP_temperature;BMP_pressure;BME280_temperature;BME280_humidity;BME280_pressure;Samples;Min_cycle;Max_cycle;Signal;HPM_P1;HPM_P2
2020/12/06 00:01:46;;;;;;;45.77;23.60;;;;;;;;;;5045774;28;20618;-72
2020/12/06 00:04:18;;;;;;;43.67;25.03;;;;;;;;;;5034536;28;20220;-72
2020/12/06 00:06:44;;;;;;;39.90;22.17;;;;;;;;;;5045578;28;20281;-72
2020/12/06 00:09:09;;;;;;;39.37;23.03;;;;;;;;;;5038130;28;20276;-72
2020/12/06 00:11:34;;;;;;;41.63;22.70;;;;;;;;;;5043009;28;20268;-72
2020/12/06 00:14:00;;;;;;;39.17;23.50;;;;;;;;;;5045083;28;20185;-72
2020/12/06 00:16:26;;;;;;;37.53;23.03;;;;;;;;;;5037261;28;20653;-72
2020/12/06 00:18:51;;;;;;;42.03;24.23;;;;;;;;;;5047779;28;20221;-72
2020/12/06 00:21:18;;;;;;;37.13;22.00;;;;;;;;;;5038153;28;20264;-72
2020/12/06 00:23:44;;;;;;;40.50;22.67;;;;;;;;;;5043424;28;20185;-72
2020/12/06 00:26:11;;;;;;;38.73;22.13;;;;;;;;;;5036997;28;20193;-72
2020/12/06 00:28:37;;;;;;;38.83;22.30;;;;;;;;;;5044893;28;20178;-72
2020/12/06 00:31:02;;;;;;;35.87;21.60;;;;;;;;;;5034859;28;20718;-72
2020/12/06 00:33:28;;;;;;;38.40;22.17;;;;;;;;;;5048120;28;20244;-72
2020/12/06 00:35:54;;;;;;;40.37;23.00;;;;;;;;;;5038391;28;20189;-72
2020/12/06 00:38:20;;;;;;;37.70;21.43;;;;;;;;;;5049013;28;20344;-72
2020/12/06 00:40:45;;;;;;;41.77;23.43;;;;;;;;;;5037689;28;20273;-72
2020/12/06 00:43:10;;;;;;;39.80;23.30;;;;;;;;;;5045757;28;20425;-72
2020/12/06 00:45:36;;;;;;;35.50;22.43;;;;;;;;;;5047180;28;20567;-72
2020/12/06 00:48:01;;;;;;;38.17;22.37;;;;;;;;;;5037811;28;20201;-72
2020/12/06 00:50:27;;;;;;;40.20;22.53;;;;;;;;;;5046228;28;20213;-72
2020/12/06 00:52:52;;;;;;;41.03;22.53;;;;;;;;;;5034643;28;21269;-72
2020/12/06 00:55:18;;;;;;;35.63;21.33;;;;;;;;;;5050614;28;20184;-72
2020/12/06 00:57:43;;;;;;;40.70;22.43;;;;;;;;;;5038769;28;20193;-72
2020/12/06 01:00:10;;;;;;;36.40;22.33;;;;;;;;;;5049185;28;20220;-72
2020/12/06 01:02:36;;;;;;;41.60;23.00;;;;;;;;;;5038374;28;20322;-72
2020/12/06 01:05:02;;;;;;;42.80;22.87;;;;;;;;;;5048709;28;20276;-72
2020/12/06 01:07:28;;;;;;;37.97;22.40;;;;;;;;;;5042284;28;20212;-72
2020/12/06 01:09:53;;;;;;;39.90;22.47;;;;;;;;;;5054660;28;20189;-72
2020/12/06 01:12:18;;;;;;;37.37;21.97;;;;;;;;;;5043418;28;20193;-72
2020/12/06 01:14:45;;;;;;;39.43;22.40;;;;;;;;;;5048799;28;20193;-72
2020/12/06 01:17:10;;;;;;;37.80;21.90;;;;;;;;;;5052411;28;20189;-72
2020/12/06 01:19:35;;;;;;;35.17;20.53;;;;;;;;;;5042915;28;20212;-72
2020/12/06 01:22:00;;;;;;;36.83;21.57;;;;;;;;;;5053713;28;20682;-72
2020/12/06 01:24:26;;;;;;;38.03;21.70;;;;;;;;;;5044682;28;20181;-72
2020/12/06 01:26:51;;;;;;;38.77;20.87;;;;;;;;;;5047929;28;20177;-72
2020/12/06 01:29:17;;;;;;;36.60;21.00;;;;;;;;;;5034627;28;20569;-72
2020/12/06 01:31:47;;;;;;;38.63;21.67;;;;;;;;;;5049838;28;20177;-72
2020/12/06 01:34:13;;;;;;;35.67;20.40;;;;;;;;;;5034639;28;20251;-71
2020/12/06 01:36:39;;;;;;;39.50;21.33;;;;;;;;;;5049996;28;20185;-72
2020/12/06 01:39:05;;;;;;;34.83;21.30;;;;;;;;;;5044613;28;20209;-72
2020/12/06 01:41:30;;;;;;;35.33;19.97;;;;;;;;;;5050576;28;20509;-72
2020/12/06 01:43:56;;;;;;;33.33;19.23;;;;;;;;;;5045350;28;20220;-72
2020/12/06 01:46:23;;;;;;;37.60;21.97;;;;;;;;;;5047549;28;20173;-72
2020/12/06 01:48:50;;;;;;;36.80;20.17;;;;;;;;;;5050662;28;20185;-72
2020/12/06 01:51:17;;;;;;;35.57;21.57;;;;;;;;;;5036188;28;20190;-72
2020/12/06 01:53:43;;;;;;;37.97;21.13;;;;;;;;;;5051566;28;20184;-72
2020/12/06 01:56:08;;;;;;;37.30;20.53;;;;;;;;;;5042551;28;20190;-72
2020/12/06 01:58:34;;;;;;;34.33;19.67;;;;;;;;;;5052240;28;20719;-72
2020/12/06 02:00:59;;;;;;;37.97;21.47;;;;;;;;;;5039917;28;20184;-72
2020/12/06 02:03:25;;;;;;;32.97;19.50;;;;;;;;;;5052625;28;20267;-72
2020/12/06 02:05:50;;;;;;;35.90;21.40;;;;;;;;;;5042225;28;20177;-72
2020/12/06 02:08:15;;;;;;;42.33;22.23;;;;;;;;;;5049222;28;20829;-72
2020/12/06 02:10:41;;;;;;;40.53;22.77;;;;;;;;;;5040995;28;20562;-72
2020/12/06 02:13:06;;;;;;;35.93;19.67;;;;;;;;;;5049684;28;20194;-72
2020/12/06 02:15:34;;;;;;;40.53;21.07;;;;;;;;;;5042345;28;20671;-72
2020/12/06 02:17:59;;;;;;;40.40;20.93;;;;;;;;;;5049865;28;20173;-72
2020/12/06 02:20:24;;;;;;;37.03;21.47;;;;;;;;;;5051039;28;20543;-72
2020/12/06 02:22:49;;;;;;;38.87;20.17;;;;;;;;;;5044557;28;20652;-72
2020/12/06 02:25:15;;;;;;;36.50;20.27;;;;;;;;;;5049653;28;20525;-72
2020/12/06 02:27:40;;;;;;;39.00;20.60;;;;;;;;;;5040969;28;20188;-72
2020/12/06 02:30:06;;;;;;;41.70;21.33;;;;;;;;;;5052020;28;20169;-72
2020/12/06 02:32:31;;;;;;;41.47;21.67;;;;;;;;;;5043267;28;20189;-72
2020/12/06 02:34:57;;;;;;;39.50;21.10;;;;;;;;;;5047380;28;20177;-72
2020/12/06 02:37:22;;;;;;;37.70;21.33;;;;;;;;;;5045872;28;20594;-72
2020/12/06 02:39:50;;;;;;;37.83;20.80;;;;;;;;;;5051461;28;20555;-72
2020/12/06 02:42:16;;;;;;;40.07;23.33;;;;;;;;;;5042261;28;20177;-72
2020/12/06 02:44:41;;;;;;;46.20;22.80;;;;;;;;;;5051346;28;20204;-72
2020/12/06 02:47:06;;;;;;;37.77;20.00;;;;;;;;;;5038373;28;20190;-72
2020/12/06 02:49:31;;;;;;;34.47;19.73;;;;;;;;;;5046380;28;20261;-72
2020/12/06 02:51:57;;;;;;;41.37;20.33;;;;;;;;;;5051165;28;20186;-72
2020/12/06 02:54:22;;;;;;;40.80;22.57;;;;;;;;;;5039473;28;20652;-72
2020/12/06 02:56:47;;;;;;;39.80;20.90;;;;;;;;;;5049953;28;20185;-72
2020/12/06 02:59:13;;;;;;;39.63;20.93;;;;;;;;;;5041497;28;20217;-72
2020/12/06 03:01:38;;;;;;;41.30;21.20;;;;;;;;;;5040667;28;20594;-72
2020/12/06 03:04:03;;;;;;;44.87;22.77;;;;;;;;;;5039626;28;20216;-72
2020/12/06 03:06:29;;;;;;;44.87;22.40;;;;;;;;;;5049432;28;20189;-72
2020/12/06 03:08:54;;;;;;;42.73;21.90;;;;;;;;;;5040471;28;20185;-72
2020/12/06 03:11:25;;;;;;;45.90;22.77;;;;;;;;;;5050905;28;20219;-72
2020/12/06 03:13:51;;;;;;;43.13;20.70;;;;;;;;;;5041614;28;20203;-72
2020/12/06 03:16:16;;;;;;;39.20;21.30;;;;;;;;;;5051298;28;20223;-72
2020/12/06 03:18:42;;;;;;;50.03;22.60;;;;;;;;;;5032400;28;20608;-72
2020/12/06 03:21:07;;;;;;;40.67;21.77;;;;;;;;;;5048708;28;20196;-72
2020/12/06 03:23:32;;;;;;;40.93;21.97;;;;;;;;;;5048560;28;20181;-72
2020/12/06 03:25:58;;;;;;;43.73;23.50;;;;;;;;;;5041953;28;20185;-72
2020/12/06 03:28:23;;;;;;;47.17;23.10;;;;;;;;;;5046629;28;20192;-72
2020/12/06 03:30:49;;;;;;;47.60;24.17;;;;;;;;;;5039022;28;20181;-72
2020/12/06 03:33:14;;;;;;;49.53;25.17;;;;;;;;;;5045914;28;20225;-72
2020/12/06 03:35:39;;;;;;;47.23;24.93;;;;;;;;;;5039388;28;20185;-72
2020/12/06 03:38:05;;;;;;;50.63;25.27;;;;;;;;;;5058134;28;20198;-72
2020/12/06 03:40:30;;;;;;;47.13;22.97;;;;;;;;;;5041744;28;20235;-72
2020/12/06 03:42:55;;;;;;;46.27;23.90;;;;;;;;;;5048989;28;20291;-72
2020/12/06 03:45:21;;;;;;;50.17;25.43;;;;;;;;;;5038585;28;20208;-72
2020/12/06 03:47:47;;;;;;;50.37;25.37;;;;;;;;;;5049613;28;20659;-72
2020/12/06 03:50:12;;;;;;;51.17;25.73;;;;;;;;;;5041344;28;20217;-72
2020/12/06 03:52:38;;;;;;;48.57;25.13;;;;;;;;;;5047966;28;20177;-72
2020/12/06 03:55:04;;;;;;;46.03;24.03;;;;;;;;;;5050052;28;20190;-72
2020/12/06 03:57:29;;;;;;;51.90;26.10;;;;;;;;;;5040106;28;20192;-72
2020/12/06 03:59:54;;;;;;;51.20;26.07;;;;;;;;;;5050052;28;20691;-72
2020/12/06 04:02:20;;;;;;;52.47;26.47;;;;;;;;;;5039449;28;20649;-72
2020/12/06 04:04:45;;;;;;;53.30;27.10;;;;;;;;;;5048603;28;20182;-72
2020/12/06 04:07:10;;;;;;;58.60;27.33;;;;;;;;;;5039547;28;20216;-72
2020/12/06 04:09:36;;;;;;;58.27;27.70;;;;;;;;;;5042492;28;20579;-72
2020/12/06 04:12:01;;;;;;;56.33;27.13;;;;;;;;;;5042064;28;20702;-72
2020/12/06 04:14:27;;;;;;;53.67;26.97;;;;;;;;;;5050225;28;20213;-72
2020/12/06 04:16:52;;;;;;;53.33;25.57;;;;;;;;;;5038568;28;20189;-72
2020/12/06 04:19:17;;;;;;;50.53;25.70;;;;;;;;;;5052017;28;20710;-72
2020/12/06 04:21:43;;;;;;;48.57;25.37;;;;;;;;;;5038826;28;20201;-72
2020/12/06 04:24:08;;;;;;;49.10;26.00;;;;;;;;;;5048847;28;20308;-72
2020/12/06 04:26:33;;;;;;;47.80;25.70;;;;;;;;;;5047883;28;20182;-72
2020/12/06 04:28:59;;;;;;;49.00;25.40;;;;;;;;;;5040704;28;20271;-72
2020/12/06 04:31:25;;;;;;;48.67;25.33;;;;;;;;;;5048136;28;20636;-72
2020/12/06 04:33:50;;;;;;;48.63;25.63;;;;;;;;;;5037861;28;20694;-72
2020/12/06 04:36:16;;;;;;;50.73;26.33;;;;;;;;;;5048136;28;20177;-72
2020/12/06 04:38:41;;;;;;;55.80;27.53;;;;;;;;;;5038795;28;20232;-71
2020/12/06 04:41:06;;;;;;;58.97;27.97;;;;;;;;;;5052451;28;20272;-72
2020/12/06 04:43:32;;;;;;;54.73;27.00;;;;;;;;;;5046740;28;20185;-71
2020/12/06 04:45:58;;;;;;;56.50;28.47;;;;;;;;;;5053536;28;20181;-71
2020/12/06 04:48:32;;;;;;;61.70;29.90;;;;;;;;;;5043363;28;20185;-71
2020/12/06 04:51:03;;;;;;;63.27;28.73;;;;;;;;;;5052197;28;20180;-72
2020/12/06 04:53:39;;;;;;;58.03;28.50;;;;;;;;;;5044875;28;20235;-71
2020/12/06 04:56:09;;;;;;;59.57;28.60;;;;;;;;;;5054848;28;20177;-71
2020/12/06 04:58:38;;;;;;;64.10;29.67;;;;;;;;;;5045681;28;20197;-71
2020/12/06 05:01:03;;;;;;;65.23;30.97;;;;;;;;;;5055030;28;20707;-72
2020/12/06 05:03:33;;;;;;;64.00;30.10;;;;;;;;;;5054061;28;20305;-72
2020/12/06 05:05:58;;;;;;;59.73;29.77;;;;;;;;;;5049909;28;20192;-72
2020/12/06 05:08:25;;;;;;;62.90;30.07;;;;;;;;;;5053250;28;20284;-72
2020/12/06 05:10:50;;;;;;;63.73;29.60;;;;;;;;;;5047637;28;20177;-72
2020/12/06 05:13:16;;;;;;;58.60;28.57;;;;;;;;;;5052532;28;20192;-71
2020/12/06 05:15:42;;;;;;;57.93;29.27;;;;;;;;;;5047985;28;20326;-71
2020/12/06 05:18:08;;;;;;;60.73;28.83;;;;;;;;;;5054797;28;20217;-72
2020/12/06 05:20:35;;;;;;;64.43;30.80;;;;;;;;;;5042451;28;20238;-72
2020/12/06 05:23:01;;;;;;;60.43;28.67;;;;;;;;;;5054368;28;20276;-72
2020/12/06 05:25:26;;;;;;;55.50;29.30;;;;;;;;;;5046414;28;20657;-72
2020/12/06 05:27:52;;;;;;;57.83;28.73;;;;;;;;;;5052578;28;20197;-72
2020/12/06 05:30:18;;;;;;;56.63;27.50;;;;;;;;;;5047116;28;20169;-72
2020/12/06 05:32:43;;;;;;;59.80;28.83;;;;;;;;;;5054433;28;20248;-72
2020/12/06 05:35:11;;;;;;;51.47;27.20;;;;;;;;;;5055643;28;20799;-72
2020/12/06 05:37:41;;;;;;;53.23;27.20;;;;;;;;;;5045607;28;20444;-71
2020/12/06 05:40:09;;;;;;;55.80;28.57;;;;;;;;;;5050249;28;20228;-71
2020/12/06 05:42:38;;;;;;;52.50;26.87;;;;;;;;;;5045125;28;20181;-71
2020/12/06 05:45:04;;;;;;;57.30;28.87;;;;;;;;;;5056596;28;20274;-71
2020/12/06 05:47:29;;;;;;;55.17;28.03;;;;;;;;;;5045440;28;20216;-72
2020/12/06 05:49:55;;;;;;;59.40;28.97;;;;;;;;;;5054259;28;20199;-71
2020/12/06 05:52:21;;;;;;;52.37;26.73;;;;;;;;;;5043107;28;20244;-72
2020/12/06 05:54:47;;;;;;;52.27;26.63;;;;;;;;;;5045549;28;20190;-72
2020/12/06 05:57:13;;;;;;;53.83;26.47;;;;;;;;;;5041754;28;20181;-72
2020/12/06 05:59:40;;;;;;;56.13;27.53;;;;;;;;;;5048442;28;20247;-72
2020/12/06 06:02:07;;;;;;;51.87;25.60;;;;;;;;;;5042728;28;20182;-72
2020/12/06 06:04:38;;;;;;;55.80;26.27;;;;;;;;;;5049119;28;20272;-72
2020/12/06 06:07:06;;;;;;;54.50;27.10;;;;;;;;;;5042739;28;20212;-72
2020/12/06 06:09:38;;;;;;;54.60;26.63;;;;;;;;;;5048338;28;20574;-72
2020/12/06 06:12:25;;;;;;;52.63;26.43;;;;;;;;;;5043367;28;20280;-72
2020/12/06 06:14:54;;;;;;;53.80;26.43;;;;;;;;;;5052359;28;20684;-72
2020/12/06 06:17:21;;;;;;;52.83;25.47;;;;;;;;;;5035743;28;20186;-72
2020/12/06 06:19:47;;;;;;;49.83;25.63;;;;;;;;;;5044766;28;20221;-72
2020/12/06 06:22:15;;;;;;;52.23;26.23;;;;;;;;;;5048148;28;20185;-72
2020/12/06 06:24:41;;;;;;;51.00;25.37;;;;;;;;;;5042459;28;20182;-72
2020/12/06 06:27:07;;;;;;;50.57;26.20;;;;;;;;;;5049080;28;20181;-72
2020/12/06 06:29:32;;;;;;;53.00;26.50;;;;;;;;;;5039954;28;20264;-72
2020/12/06 06:31:58;;;;;;;48.77;24.17;;;;;;;;;;5047549;28;20178;-71
2020/12/06 06:34:25;;;;;;;50.47;26.47;;;;;;;;;;5038496;28;20222;-72
2020/12/06 06:36:51;;;;;;;49.33;25.60;;;;;;;;;;5049304;28;20196;-72
2020/12/06 06:39:22;;;;;;;49.87;25.50;;;;;;;;;;5040684;28;20280;-72
2020/12/06 06:41:57;;;;;;;50.60;25.90;;;;;;;;;;5048599;28;20217;-72
2020/12/06 06:44:23;;;;;;;45.53;25.07;;;;;;;;;;5040412;28;20199;-72
2020/12/06 06:46:49;;;;;;;50.07;26.80;;;;;;;;;;5047262;28;20169;-72
2020/12/06 06:49:15;;;;;;;51.27;25.73;;;;;;;;;;5036838;28;20192;-72
2020/12/06 06:51:51;;;;;;;52.70;25.90;;;;;;;;;;5047298;28;20189;-72
2020/12/06 06:54:25;;;;;;;49.00;26.20;;;;;;;;;;5038633;28;20189;-72
2020/12/06 06:56:52;;;;;;;51.40;27.07;;;;;;;;;;5046702;28;20601;-72
2020/12/06 06:59:36;;;;;;;52.20;26.20;;;;;;;;;;5044848;28;20209;-72
2020/12/06 07:02:03;;;;;;;50.30;25.60;;;;;;;;;;5047354;28;20185;-72
2020/12/06 07:04:29;;;;;;;54.00;25.93;;;;;;;;;;5047876;28;20190;-73
2020/12/06 07:06:54;;;;;;;49.43;26.27;;;;;;;;;;5038440;28;20213;-72
2020/12/06 07:09:30;;;;;;;48.97;25.53;;;;;;;;;;5046057;28;20267;-72
2020/12/06 07:11:57;;;;;;;51.63;25.70;;;;;;;;;;5037694;28;20581;-71
2020/12/06 07:14:24;;;;;;;52.33;25.70;;;;;;;;;;4345407;28;10021595;-73
2020/12/06 07:16:51;;;;;;;53.40;26.20;;;;;;;;;;5033139;28;20192;-72
2020/12/06 07:19:17;;;;;;;50.60;26.00;;;;;;;;;;5042220;28;20227;-72
2020/12/06 07:21:42;;;;;;;49.10;26.77;;;;;;;;;;5035637;28;20217;-72
2020/12/06 07:24:08;;;;;;;48.57;27.10;;;;;;;;;;5043600;28;20555;-73
2020/12/06 07:26:33;;;;;;;50.43;26.13;;;;;;;;;;5035769;28;20708;-73
2020/12/06 07:28:59;;;;;;;51.80;26.27;;;;;;;;;;5043353;28;20200;-72
2020/12/06 07:31:25;;;;;;;47.67;26.03;;;;;;;;;;5033555;28;20688;-72
2020/12/06 07:33:50;;;;;;;52.03;26.63;;;;;;;;;;5040621;28;21028;-72
2020/12/06 07:36:17;;;;;;;50.67;26.97;;;;;;;;;;5042522;28;20193;-72
2020/12/06 07:38:43;;;;;;;49.77;25.60;;;;;;;;;;5033960;28;20220;-72
2020/12/06 07:41:09;;;;;;;47.70;26.53;;;;;;;;;;5045710;28;20193;-73
2020/12/06 07:43:34;;;;;;;48.43;25.87;;;;;;;;;;5036093;28;20319;-72
2020/12/06 07:46:20;;;;;;;52.77;26.47;;;;;;;;;;5043443;28;20197;-72
2020/12/06 07:48:56;;;;;;;48.40;27.03;;;;;;;;;;5036277;28;20657;-72
2020/12/06 07:51:25;;;;;;;49.83;26.17;;;;;;;;;;5040320;28;20687;-72
2020/12/06 07:53:52;;;;;;;50.87;26.30;;;;;;;;;;5035811;28;20185;-72
2020/12/06 07:56:23;;;;;;;51.70;26.87;;;;;;;;;;5044652;28;20196;-72
2020/12/06 07:59:13;;;;;;;48.83;26.57;;;;;;;;;;5034993;28;20237;-72
2020/12/06 08:01:43;;;;;;;53.33;26.90;;;;;;;;;;5055777;28;20642;-72
2020/12/06 08:04:13;;;;;;;55.77;27.03;;;;;;;;;;5035315;28;20185;-72
2020/12/06 08:06:41;;;;;;;50.60;26.00;;;;;;;;;;5041416;28;20196;-72
2020/12/06 08:09:07;;;;;;;47.57;26.27;;;;;;;;;;5032927;28;20188;-73
2020/12/06 08:11:35;;;;;;;47.70;26.77;;;;;;;;;;5041927;28;20201;-72
2020/12/06 08:14:02;;;;;;;49.83;26.53;;;;;;;;;;5034952;28;20188;-73
2020/12/06 08:16:27;;;;;;;48.30;26.27;;;;;;;;;;5040426;28;20186;-73
2020/12/06 08:19:03;;;;;;;48.90;25.90;;;;;;;;;;5034580;28;20239;-72
2020/12/06 08:21:42;;;;;;;50.77;26.23;;;;;;;;;;5041091;28;20188;-72
2020/12/06 08:24:20;;;;;;;51.97;27.43;;;;;;;;;;5033750;28;20189;-73
2020/12/06 08:26:46;;;;;;;45.87;25.13;;;;;;;;;;5057202;28;20532;-74
2020/12/06 08:29:12;;;;;;;46.93;26.37;;;;;;;;;;5040751;28;20211;-74
2020/12/06 08:31:37;;;;;;;50.87;26.50;;;;;;;;;;5033671;28;20193;-74
2020/12/06 08:34:11;;;;;;;47.47;25.93;;;;;;;;;;5044682;28;21123;-74
2020/12/06 08:36:36;;;;;;;50.73;27.43;;;;;;;;;;5048557;28;20668;-73
2020/12/06 08:39:13;;;;;;;51.07;26.90;;;;;;;;;;5039495;28;20237;-74
2020/12/06 08:41:38;;;;;;;49.60;26.57;;;;;;;;;;5032031;28;20189;-72
2020/12/06 08:44:04;;;;;;;51.90;27.43;;;;;;;;;;5043131;28;20718;-73
2020/12/06 08:46:30;;;;;;;50.80;27.03;;;;;;;;;;5033651;28;20178;-73
2020/12/06 08:48:57;;;;;;;45.20;26.30;;;;;;;;;;5041784;28;20227;-74
2020/12/06 08:51:28;;;;;;;46.57;27.00;;;;;;;;;;5024180;28;20198;-73
2020/12/06 08:53:54;;;;;;;47.57;25.20;;;;;;;;;;5026797;28;20691;-73
2020/12/06 08:56:39;;;;;;;45.90;25.53;;;;;;;;;;5021517;28;20287;-73
2020/12/06 08:59:15;;;;;;;47.40;25.43;;;;;;;;;;5031981;28;20205;-74
2020/12/06 09:01:55;;;;;;;50.07;26.97;;;;;;;;;;5022437;28;20225;-73
2020/12/06 09:04:21;;;;;;;48.53;26.70;;;;;;;;;;5030967;28;21689;-73
2020/12/06 09:06:48;;;;;;;43.33;24.73;;;;;;;;;;5023397;28;20205;-73
2020/12/06 09:09:13;;;;;;;42.03;24.93;;;;;;;;;;5031602;28;20189;-73
2020/12/06 09:11:39;;;;;;;46.63;26.83;;;;;;;;;;5025860;28;20189;-74
2020/12/06 09:14:05;;;;;;;51.40;26.33;;;;;;;;;;5034253;28;20193;-73
2020/12/06 09:16:31;;;;;;;50.60;26.57;;;;;;;;;;5032876;28;20197;-72
2020/12/06 09:18:56;;;;;;;47.67;25.97;;;;;;;;;;5043222;28;20209;-72
2020/12/06 09:21:21;;;;;;;53.30;25.90;;;;;;;;;;5035789;28;20565;-72
2020/12/06 09:23:47;;;;;;;46.03;27.00;;;;;;;;;;5028000;28;20641;-72
2020/12/06 09:26:13;;;;;;;45.33;26.13;;;;;;;;;;5052071;28;20700;-72
2020/12/06 09:28:38;;;;;;;43.90;25.50;;;;;;;;;;5029841;28;20194;-72
2020/12/06 09:31:04;;;;;;;44.07;25.67;;;;;;;;;;5040381;28;20667;-73
2020/12/06 09:33:29;;;;;;;48.23;27.37;;;;;;;;;;5032047;28;20225;-72
2020/12/06 09:35:55;;;;;;;45.80;26.10;;;;;;;;;;5039846;28;20198;-73
2020/12/06 09:38:21;;;;;;;45.97;26.33;;;;;;;;;;5030166;28;20710;-72
2020/12/06 09:40:46;;;;;;;45.60;26.07;;;;;;;;;;5038634;28;20181;-72
2020/12/06 09:43:12;;;;;;;46.93;27.33;;;;;;;;;;5031724;28;20208;-73
2020/12/06 09:45:38;;;;;;;48.43;26.87;;;;;;;;;;5054573;28;20746;-74
2020/12/06 09:48:04;;;;;;;51.33;28.10;;;;;;;;;;5039424;28;20197;-74
2020/12/06 09:50:29;;;;;;;53.17;29.40;;;;;;;;;;5030679;28;20190;-74
2020/12/06 09:52:55;;;;;;;46.03;26.67;;;;;;;;;;5039899;28;20186;-73
2020/12/06 09:55:20;;;;;;;47.97;26.83;;;;;;;;;;5031022;28;20201;-74
2020/12/06 09:57:45;;;;;;;45.83;27.90;;;;;;;;;;5039509;28;20197;-73
2020/12/06 10:00:11;;;;;;;46.00;27.33;;;;;;;;;;5028276;28;20225;-73
2020/12/06 10:02:36;;;;;;;44.77;26.20;;;;;;;;;;5036849;28;20186;-73
2020/12/06 10:05:02;;;;;;;44.57;25.80;;;;;;;;;;5029993;28;20205;-73
2020/12/06 10:07:27;;;;;;;46.87;26.73;;;;;;;;;;5039647;28;20244;-73
2020/12/06 10:09:52;;;;;;;43.33;26.17;;;;;;;;;;5030652;28;20637;-73
2020/12/06 10:12:18;;;;;;;44.63;26.33;;;;;;;;;;5039110;28;20190;-73
2020/12/06 10:14:44;;;;;;;43.63;25.43;;;;;;;;;;5038084;28;20182;-73
2020/12/06 10:17:09;;;;;;;44.37;25.80;;;;;;;;;;5029769;28;20193;-73
2020/12/06 10:19:35;;;;;;;42.40;23.03;;;;;;;;;;5039559;28;20201;-72
2020/12/06 10:22:00;;;;;;;40.33;23.93;;;;;;;;;;5031712;28;20186;-71
2020/12/06 10:24:25;;;;;;;43.03;24.33;;;;;;;;;;5038376;28;20219;-74
2020/12/06 10:26:56;;;;;;;44.40;24.73;;;;;;;;;;5030536;28;20275;-73
2020/12/06 10:29:21;;;;;;;45.60;25.53;;;;;;;;;;5038502;28;20226;-73
2020/12/06 10:31:54;;;;;;;46.37;25.70;;;;;;;;;;5030809;28;20197;-73
2020/12/06 10:34:21;;;;;;;43.80;25.53;;;;;;;;;;5040491;28;20229;-74
2020/12/06 10:36:51;;;;;;;37.30;23.73;;;;;;;;;;5027418;28;20193;-73
2020/12/06 10:39:17;;;;;;;42.50;25.37;;;;;;;;;;5055751;28;20213;-73
2020/12/06 10:41:42;;;;;;;41.47;23.53;;;;;;;;;;5029915;28;20185;-73
2020/12/06 10:44:07;;;;;;;37.33;23.20;;;;;;;;;;5040536;28;20196;-73
2020/12/06 10:46:33;;;;;;;41.07;24.00;;;;;;;;;;5031182;28;20335;-72
2020/12/06 10:48:58;;;;;;;42.50;24.73;;;;;;;;;;5040262;28;20173;-71
2020/12/06 10:51:23;;;;;;;41.77;24.63;;;;;;;;;;5037353;28;20230;-72
2020/12/06 10:53:49;;;;;;;39.50;24.80;;;;;;;;;;5042061;28;20332;-74
2020/12/06 10:56:14;;;;;;;40.90;24.17;;;;;;;;;;5031577;28;20599;-73
2020/12/06 10:58:39;;;;;;;43.87;24.67;;;;;;;;;;5026971;28;20251;-73
2020/12/06 11:01:05;;;;;;;43.70;24.37;;;;;;;;;;5031578;28;20197;-73
2020/12/06 11:03:30;;;;;;;43.30;25.87;;;;;;;;;;5023899;28;20201;-73
2020/12/06 11:05:55;;;;;;;45.35;28.00;;;;;;;;;;5029835;28;20450;-73
2020/12/06 11:08:23;;;;;;;42.23;26.23;;;;;;;;;;5043028;28;20304;-72
2020/12/06 11:10:48;;;;;;;44.70;25.67;;;;;;;;;;5032632;28;20242;-73
2020/12/06 11:13:14;;;;;;;41.20;25.30;;;;;;;;;;5040334;28;20907;-72
2020/12/06 11:15:39;;;;;;;42.40;24.53;;;;;;;;;;5047376;28;20193;-72
2020/12/06 11:18:04;;;;;;;46.10;26.37;;;;;;;;;;5029895;28;21020;-73
2020/12/06 11:20:29;;;;;;;45.20;26.77;;;;;;;;;;5033470;28;20217;-73
2020/12/06 11:22:55;;;;;;;44.83;26.10;;;;;;;;;;5035232;28;20209;-73
2020/12/06 11:25:20;;;;;;;44.00;25.63;;;;;;;;;;5028075;28;20189;-72
2020/12/06 11:27:45;;;;;;;45.00;28.13;;;;;;;;;;5035927;28;20894;-72
2020/12/06 11:30:11;;;;;;;48.57;26.90;;;;;;;;;;5025377;28;20194;-72
2020/12/06 11:32:36;;;;;;;45.63;26.20;;;;;;;;;;5034951;28;20651;-74
2020/12/06 11:35:02;;;;;;;42.70;26.30;;;;;;;;;;5027993;28;20221;-72
2020/12/06 11:37:27;;;;;;;47.23;27.47;;;;;;;;;;5052150;28;20257;-73
2020/12/06 11:39:52;;;;;;;47.23;27.30;;;;;;;;;;5027602;28;20213;-73
2020/12/06 11:42:18;;;;;;;43.53;26.23;;;;;;;;;;5037468;28;20193;-73
2020/12/06 11:44:43;;;;;;;47.83;27.47;;;;;;;;;;5027122;28;20636;-73
2020/12/06 11:47:08;;;;;;;49.80;28.73;;;;;;;;;;5038753;28;20550;-73
2020/12/06 11:49:33;;;;;;;50.10;28.90;;;;;;;;;;5035345;28;20185;-73
2020/12/06 11:51:59;;;;;;;49.73;28.30;;;;;;;;;;5028593;28;20191;-73
2020/12/06 11:54:24;;;;;;;51.13;28.73;;;;;;;;;;5033280;28;20185;-73
2020/12/06 11:56:49;;;;;;;51.17;28.47;;;;;;;;;;5028537;28;20200;-73
2020/12/06 11:59:18;;;;;;;50.60;29.90;;;;;;;;;;5050342;28;20303;-73
2020/12/06 12:01:44;;;;;;;50.80;30.07;;;;;;;;;;5025940;28;20185;-73
2020/12/06 12:04:10;;;;;;;52.00;29.47;;;;;;;;;;5038065;28;20248;-73
2020/12/06 12:06:36;;;;;;;48.53;28.17;;;;;;;;;;5043449;28;20194;-73
2020/12/06 12:09:01;;;;;;;51.33;28.73;;;;;;;;;;5033917;28;20195;-73
2020/12/06 12:11:27;;;;;;;55.83;30.80;;;;;;;;;;5029044;28;20198;-73
2020/12/06 12:13:52;;;;;;;49.17;29.37;;;;;;;;;;5033097;28;20189;-72
2020/12/06 12:16:17;;;;;;;51.67;29.03;;;;;;;;;;5025290;28;20734;-73
2020/12/06 12:18:44;;;;;;;52.60;30.70;;;;;;;;;;5035680;28;20206;-72
2020/12/06 12:21:09;;;;;;;50.03;29.70;;;;;;;;;;5035381;28;20177;-72
2020/12/06 12:23:35;;;;;;;57.70;32.40;;;;;;;;;;5028600;28;20185;-73
2020/12/06 12:26:00;;;;;;;60.27;32.83;;;;;;;;;;5036150;28;21181;-72
2020/12/06 12:28:25;;;;;;;59.60;32.07;;;;;;;;;;5029182;28;20266;-72
2020/12/06 12:30:51;;;;;;;58.07;32.03;;;;;;;;;;5035469;28;20270;-72
2020/12/06 12:33:16;;;;;;;63.67;33.77;;;;;;;;;;5027944;28;20229;-72
2020/12/06 12:35:42;;;;;;;55.77;32.17;;;;;;;;;;5037066;28;20331;-73
2020/12/06 12:38:07;;;;;;;70.37;34.93;;;;;;;;;;5026305;28;20192;-74
2020/12/06 12:40:32;;;;;;;60.63;32.93;;;;;;;;;;5033071;28;21101;-74
2020/12/06 12:42:58;;;;;;;71.30;36.43;;;;;;;;;;5024031;28;20208;-75
2020/12/06 12:45:23;;;;;;;62.40;35.40;;;;;;;;;;5036925;28;20652;-77
2020/12/06 12:47:52;;;;;;;69.60;35.67;;;;;;;;;;5026895;28;20747;-73
2020/12/06 12:50:18;;;;;;;72.97;36.63;;;;;;;;;;5033527;28;20489;-74
2020/12/06 12:52:46;;;;;;;71.73;36.77;;;;;;;;;;5032369;28;20193;-75
2020/12/06 12:55:13;;;;;;;73.63;37.30;;;;;;;;;;5026738;28;20722;-75
2020/12/06 12:57:41;;;;;;;74.20;38.07;;;;;;;;;;5035710;28;20212;-75
2020/12/06 13:00:06;;;;;;;75.47;39.00;;;;;;;;;;5026427;28;20209;-74
2020/12/06 13:02:33;;;;;;;74.67;38.33;;;;;;;;;;5037381;28;20706;-73
2020/12/06 13:04:58;;;;;;;73.27;37.83;;;;;;;;;;5030964;28;20181;-74
2020/12/06 13:07:24;;;;;;;75.67;38.57;;;;;;;;;;5054002;28;20633;-73
2020/12/06 13:09:49;;;;;;;100.27;52.83;;;;;;;;;;5027947;28;20435;-73
2020/12/06 13:12:14;;;;;;;80.00;41.40;;;;;;;;;;5040020;28;20193;-73
2020/12/06 13:14:40;;;;;;;76.63;40.23;;;;;;;;;;5030716;28;20197;-74
2020/12/06 13:17:05;;;;;;;85.00;41.10;;;;;;;;;;5037471;28;20737;-73
2020/12/06 13:19:30;;;;;;;77.27;39.53;;;;;;;;;;5025842;28;20221;-73
2020/12/06 13:21:56;;;;;;;77.63;39.87;;;;;;;;;;5033141;28;20660;-73
2020/12/06 13:24:21;;;;;;;76.30;39.40;;;;;;;;;;5038932;28;20196;-73
2020/12/06 13:26:50;;;;;;;80.83;40.47;;;;;;;;;;5026320;28;20594;-73
2020/12/06 13:29:16;;;;;;;73.57;37.97;;;;;;;;;;5039505;28;20181;-73
2020/12/06 13:31:41;;;;;;;78.43;38.67;;;;;;;;;;5027216;28;20718;-73
2020/12/06 13:34:06;;;;;;;75.63;37.97;;;;;;;;;;5035573;28;20225;-73
2020/12/06 13:36:31;;;;;;;75.63;38.20;;;;;;;;;;5025825;28;20268;-73
2020/12/06 13:38:57;;;;;;;76.00;38.60;;;;;;;;;;5034960;28;20217;-73
2020/12/06 13:41:27;;;;;;;73.23;37.70;;;;;;;;;;5026244;28;20198;-73
2020/12/06 13:43:52;;;;;;;74.60;38.90;;;;;;;;;;5036810;28;20267;-73
2020/12/06 13:46:21;;;;;;;80.20;39.60;;;;;;;;;;5029371;28;20296;-73
2020/12/06 13:48:48;;;;;;;73.53;37.90;;;;;;;;;;5037226;28;20912;-73
2020/12/06 13:51:13;;;;;;;80.10;40.63;;;;;;;;;;5029005;28;20197;-72
2020/12/06 13:53:38;;;;;;;73.97;38.93;;;;;;;;;;5036310;28;20222;-73
2020/12/06 13:56:03;;;;;;;82.57;40.43;;;;;;;;;;5036500;28;20177;-73
2020/12/06 13:58:29;;;;;;;73.77;37.00;;;;;;;;;;5026064;28;20751;-72
2020/12/06 14:00:54;;;;;;;76.30;37.83;;;;;;;;;;5034042;28;20189;-73
2020/12/06 14:03:20;;;;;;;71.13;37.20;;;;;;;;;;5027384;28;20188;-72
2020/12/06 14:05:46;;;;;;;74.90;39.03;;;;;;;;;;5033065;28;20199;-72
2020/12/06 14:08:12;;;;;;;78.37;38.43;;;;;;;;;;5028961;28;20304;-73
2020/12/06 14:10:37;;;;;;;66.90;36.60;;;;;;;;;;5031946;28;20180;-72
2020/12/06 14:13:03;;;;;;;68.97;37.23;;;;;;;;;;5024753;28;20606;-73